createdAt,value
2023-09-23T00:00:39.043Z,13.50
2023-09-23T00:03:10.764Z,13.50
2023-09-23T00:05:42.018Z,13.40
2023-09-23T00:08:12.537Z,13.40
2023-09-23T00:10:47.217Z,13.40
2023-09-23T00:13:17.982Z,13.40
2023-09-23T00:15:51.723Z,13.30
2023-09-23T00:18:22.516Z,13.10
2023-09-23T00:20:53.511Z,13.00
2023-09-23T00:23:24.188Z,13.00
2023-09-23T00:25:56.142Z,13.00
2023-09-23T00:28:28.053Z,13.00
2023-09-23T00:31:05.574Z,12.90
2023-09-23T00:33:38.195Z,12.80
2023-09-23T00:36:09.318Z,12.80
2023-09-23T00:38:39.803Z,12.70
2023-09-23T00:41:11.930Z,12.70
2023-09-23T00:43:42.350Z,12.60
2023-09-23T00:46:13.350Z,12.60
2023-09-23T00:48:46.278Z,12.50
2023-09-23T00:51:17.140Z,12.50
2023-09-23T00:53:48.462Z,12.50
2023-09-23T00:56:22.596Z,12.40
2023-09-23T00:58:52.917Z,12.40
2023-09-23T01:01:24.233Z,12.30
2023-09-23T01:03:54.537Z,12.20
2023-09-23T01:06:28.629Z,12.10
2023-09-23T01:08:59.040Z,12.20
2023-09-23T01:11:32.684Z,12.20
2023-09-23T01:14:04.490Z,12.20
2023-09-23T01:16:35.983Z,12.20
2023-09-23T01:19:07.218Z,12.20
2023-09-23T01:21:37.416Z,12.20
2023-09-23T01:24:09.939Z,12.20
2023-09-23T01:26:41.533Z,12.20
2023-09-23T01:29:13.848Z,12.00
2023-09-23T01:31:44.235Z,12.00
2023-09-23T01:34:14.504Z,12.00
2023-09-23T01:36:44.752Z,11.90
2023-09-23T01:39:16.975Z,11.80
2023-09-23T01:41:47.255Z,11.80
2023-09-23T01:44:18.072Z,11.90
2023-09-23T01:46:48.733Z,11.90
2023-09-23T01:49:19.469Z,11.90
2023-09-23T01:51:50.681Z,11.90
2023-09-23T01:54:22.546Z,11.90
2023-09-23T01:56:53.216Z,11.90
2023-09-23T01:59:23.426Z,11.90
2023-09-23T02:01:53.927Z,11.80
2023-09-23T02:04:24.720Z,11.70
2023-09-23T02:06:54.971Z,11.70
2023-09-23T02:09:27.431Z,11.60
2023-09-23T02:11:57.647Z,11.60
2023-09-23T02:14:27.947Z,11.50
2023-09-23T02:17:02.698Z,11.40
2023-09-23T02:19:33.051Z,11.40
2023-09-23T02:22:07.536Z,11.30
2023-09-23T02:24:39.667Z,11.30
2023-09-23T02:27:12.166Z,11.40
2023-09-23T02:29:43.342Z,11.40
2023-09-23T02:32:13.691Z,11.30
2023-09-23T02:34:47.229Z,11.20
2023-09-23T02:37:17.701Z,11.20
2023-09-23T02:39:50.618Z,11.30
2023-09-23T02:42:20.936Z,11.30
2023-09-23T02:44:51.322Z,11.30
2023-09-23T02:47:22.207Z,11.20
2023-09-23T02:49:52.543Z,11.10
2023-09-23T02:52:23.833Z,11.00
2023-09-23T02:54:57.453Z,11.00
2023-09-23T02:57:27.872Z,11.00
2023-09-23T02:59:59.230Z,11.00
2023-09-23T03:02:33.138Z,11.00
2023-09-23T03:05:09.592Z,10.90
2023-09-23T03:07:41.173Z,10.90
2023-09-23T03:10:15.560Z,10.80
2023-09-23T03:12:53.087Z,10.70
2023-09-23T03:15:29.706Z,10.70
2023-09-23T03:18:01.998Z,10.70
2023-09-23T03:20:32.757Z,10.70
2023-09-23T03:23:03.020Z,10.70
2023-09-23T03:25:34.884Z,10.70
2023-09-23T03:28:05.182Z,10.70
2023-09-23T03:30:37.280Z,10.70
2023-09-23T03:33:08.870Z,10.70
2023-09-23T03:35:40.564Z,10.70
2023-09-23T03:38:10.926Z,10.70
2023-09-23T03:40:43.039Z,10.60
2023-09-23T03:43:14.222Z,10.60
2023-09-23T03:45:44.648Z,10.60
2023-09-23T03:48:14.985Z,10.60
2023-09-23T03:50:45.207Z,10.70
2023-09-23T03:53:15.512Z,10.70
2023-09-23T03:55:47.415Z,10.70
2023-09-23T03:58:19.017Z,10.80
2023-09-23T04:00:49.381Z,10.80
2023-09-23T04:03:19.827Z,10.80
2023-09-23T04:05:59.987Z,10.80
2023-09-23T04:08:31.329Z,10.80
2023-09-23T04:11:06.357Z,10.90
2023-09-23T04:13:36.921Z,10.70
2023-09-23T04:16:07.943Z,10.60
2023-09-23T04:18:39.075Z,10.50
2023-09-23T04:21:10.549Z,10.50
2023-09-23T04:23:41.199Z,10.60
2023-09-23T04:26:14.752Z,10.50
2023-09-23T04:28:46.197Z,10.60
2023-09-23T04:31:16.556Z,10.50
2023-09-23T04:33:47.044Z,10.40
2023-09-23T04:36:17.293Z,10.40
2023-09-23T04:38:47.812Z,10.40
2023-09-23T04:41:19.800Z,10.30
2023-09-23T04:43:50.374Z,10.20
2023-09-23T04:46:20.661Z,10.10
2023-09-23T04:48:51.153Z,10.00
2023-09-23T04:51:21.944Z,9.90
2023-09-23T04:53:52.293Z,9.80
2023-09-23T04:56:24.137Z,9.80
2023-09-23T04:59:00.812Z,9.80
2023-09-23T05:01:31.250Z,9.70
2023-09-23T05:04:01.925Z,9.80
2023-09-23T05:06:32.199Z,10.00
2023-09-23T05:09:03.064Z,10.10
2023-09-23T05:11:34.861Z,10.30
2023-09-23T05:14:06.728Z,10.30
2023-09-23T05:16:37.646Z,10.30
2023-09-23T05:19:07.992Z,10.40
2023-09-23T05:21:39.301Z,10.40
2023-09-23T05:24:12.082Z,10.40
2023-09-23T05:26:45.266Z,10.30
2023-09-23T05:29:15.799Z,10.20
2023-09-23T05:31:46.109Z,10.20
2023-09-23T05:34:17.169Z,10.30
2023-09-23T05:36:47.708Z,10.30
2023-09-23T05:39:21.319Z,10.30
2023-09-23T05:41:53.476Z,10.30
2023-09-23T05:44:25.145Z,10.20
2023-09-23T05:46:55.527Z,10.10
2023-09-23T05:49:26.595Z,10.00
2023-09-23T05:51:56.982Z,9.90
2023-09-23T05:54:27.234Z,9.80
2023-09-23T05:56:59.805Z,9.70
2023-09-23T05:59:30.110Z,9.70
2023-09-23T06:02:00.336Z,9.70
2023-09-23T06:04:31.868Z,9.80
2023-09-23T06:07:02.575Z,9.80
2023-09-23T06:09:32.813Z,9.70
2023-09-23T06:12:04.647Z,9.80
2023-09-23T06:14:36.374Z,9.90
2023-09-23T06:17:07.125Z,9.90
2023-09-23T06:19:37.471Z,9.90
2023-09-23T06:22:07.710Z,9.90
2023-09-23T06:24:38.005Z,9.90
2023-09-23T06:27:09.866Z,9.90
2023-09-23T06:29:40.145Z,9.80
2023-09-23T06:32:11.603Z,9.70
2023-09-23T06:34:41.907Z,9.60
2023-09-23T06:37:12.138Z,9.60
2023-09-23T06:39:42.597Z,9.50
2023-09-23T06:42:14.485Z,9.40
2023-09-23T06:44:45.379Z,9.40
2023-09-23T06:47:15.933Z,9.30
2023-09-23T06:49:46.571Z,9.30
2023-09-23T06:52:17.468Z,9.20
2023-09-23T06:54:47.775Z,9.30
2023-09-23T06:57:19.616Z,9.40
2023-09-23T06:59:51.175Z,9.40
2023-09-23T07:02:21.928Z,9.30
2023-09-23T07:04:52.254Z,9.30
2023-09-23T07:07:22.420Z,9.30
2023-09-23T07:09:52.673Z,9.20
2023-09-23T07:12:24.826Z,9.20
2023-09-23T07:14:55.066Z,9.20
2023-09-23T07:17:25.792Z,9.10
2023-09-23T07:19:56.256Z,9.20
2023-09-23T07:22:26.754Z,9.20
2023-09-23T07:24:57.115Z,9.10
2023-09-23T07:27:29.944Z,9.20
2023-09-23T07:30:00.299Z,9.30
2023-09-23T07:32:30.638Z,9.50
2023-09-23T07:35:01.579Z,9.70
2023-09-23T07:37:32.310Z,9.70
2023-09-23T07:40:02.585Z,9.60
2023-09-23T07:42:34.484Z,9.50
2023-09-23T07:45:04.773Z,9.40
2023-09-23T07:47:35.201Z,9.30
2023-09-23T07:50:05.854Z,9.10
2023-09-23T07:52:37.713Z,9.00
2023-09-23T07:55:08.829Z,9.00
2023-09-23T07:57:40.664Z,9.00
2023-09-23T08:00:11.893Z,9.00
2023-09-23T08:02:42.143Z,9.00
2023-09-23T08:05:12.980Z,8.90
2023-09-23T08:07:43.243Z,8.90
2023-09-23T08:10:13.806Z,8.90
2023-09-23T08:12:45.608Z,8.90
2023-09-23T08:15:16.051Z,8.80
2023-09-23T08:17:46.428Z,8.80
2023-09-23T08:20:22.122Z,8.80
2023-09-23T08:22:52.508Z,8.90
2023-09-23T08:25:22.945Z,8.80
2023-09-23T08:27:55.591Z,8.70
2023-09-23T08:30:25.988Z,8.70
2023-09-23T08:32:56.906Z,8.70
2023-09-23T08:35:28.316Z,8.60
2023-09-23T08:37:58.803Z,8.50
2023-09-23T08:40:30.442Z,8.50
2023-09-23T08:43:07.249Z,8.50
2023-09-23T08:45:44.976Z,8.40
2023-09-23T08:48:16.909Z,8.40
2023-09-23T08:50:48.643Z,8.40
2023-09-23T08:53:20.579Z,8.40
2023-09-23T08:55:50.981Z,8.40
2023-09-23T08:58:23.142Z,8.40
2023-09-23T09:00:54.886Z,8.30
2023-09-23T09:03:25.401Z,8.30
2023-09-23T09:05:56.047Z,8.30
2023-09-23T09:08:26.378Z,8.40
2023-09-23T09:11:00.568Z,8.30
2023-09-23T09:13:34.560Z,8.20
2023-09-23T09:16:08.604Z,8.20
2023-09-23T09:18:39.105Z,8.30
2023-09-23T09:21:10.267Z,8.20
2023-09-23T09:23:41.041Z,8.20
2023-09-23T09:26:11.955Z,8.20
2023-09-23T09:28:44.177Z,8.20
2023-09-23T09:31:15.684Z,8.20
2023-09-23T09:33:49.270Z,8.20
2023-09-23T09:36:22.283Z,8.10
2023-09-23T09:38:54.512Z,8.00
2023-09-23T09:41:31.667Z,8.00
2023-09-23T09:44:06.059Z,8.10
2023-09-23T09:46:38.874Z,8.00
2023-09-23T09:49:09.966Z,7.90
2023-09-23T09:51:41.665Z,7.90
2023-09-23T09:54:13.389Z,7.80
2023-09-23T09:56:44.638Z,7.90
2023-09-23T09:59:27.704Z,7.90
2023-09-23T10:02:00.648Z,7.90
2023-09-23T10:04:35.484Z,7.80
2023-09-23T10:07:10.075Z,7.80
2023-09-23T10:09:43.022Z,7.90
2023-09-23T10:12:17.498Z,8.00
2023-09-23T10:14:58.362Z,8.00
2023-09-23T10:17:34.935Z,8.00
2023-09-23T10:20:12.638Z,7.90
2023-09-23T10:22:53.229Z,7.80
2023-09-23T10:25:24.420Z,7.80
2023-09-23T10:28:02.578Z,7.70
2023-09-23T10:30:35.177Z,7.70
2023-09-23T10:33:06.978Z,7.70
2023-09-23T10:35:39.603Z,7.60
2023-09-23T10:38:09.907Z,7.70
2023-09-23T10:40:40.186Z,7.60
2023-09-23T10:43:10.556Z,7.60
2023-09-23T10:45:42.551Z,7.60
2023-09-23T10:48:12.829Z,7.60
2023-09-23T10:50:43.146Z,7.60
2023-09-23T10:53:13.517Z,7.60
2023-09-23T10:55:44.209Z,7.50
2023-09-23T10:58:14.811Z,7.50
2023-09-23T11:00:47.697Z,7.50
2023-09-23T11:03:20.099Z,7.50
2023-09-23T11:05:52.950Z,7.50
2023-09-23T11:08:24.461Z,7.60
2023-09-23T11:10:55.123Z,7.80
2023-09-23T11:13:25.946Z,7.90
2023-09-23T11:15:59.174Z,8.10
2023-09-23T11:18:30.819Z,8.20
2023-09-23T11:21:05.500Z,8.30
2023-09-23T11:23:37.359Z,8.40
2023-09-23T11:26:09.741Z,8.50
2023-09-23T11:28:40.101Z,8.60
2023-09-23T11:31:12.701Z,8.70
2023-09-23T11:33:42.961Z,8.80
2023-09-23T11:36:13.198Z,8.90
2023-09-23T11:38:43.452Z,9.00
2023-09-23T11:41:13.682Z,9.10
2023-09-23T11:43:43.924Z,9.10
2023-09-23T11:46:16.257Z,9.20
2023-09-23T11:48:49.931Z,9.40
2023-09-23T11:51:21.379Z,9.50
2023-09-23T11:53:51.682Z,9.60
2023-09-23T11:56:21.917Z,9.70
2023-09-23T11:59:05.916Z,9.80
2023-09-23T12:01:40.022Z,10.00
2023-09-23T12:04:10.642Z,10.10
2023-09-23T12:06:41.183Z,10.30
2023-09-23T12:09:11.867Z,10.40
2023-09-23T12:11:42.157Z,10.60
2023-09-23T12:14:12.959Z,10.70
2023-09-23T12:16:45.533Z,10.80
2023-09-23T12:19:16.180Z,11.00
2023-09-23T12:21:46.416Z,11.10
2023-09-23T12:24:16.695Z,11.30
2023-09-23T12:26:46.954Z,11.30
2023-09-23T12:29:17.720Z,11.40
2023-09-23T12:31:49.688Z,11.50
2023-09-23T12:34:20.024Z,11.50
2023-09-23T12:36:51.778Z,11.60
2023-09-23T12:39:24.020Z,11.60
2023-09-23T12:41:54.602Z,11.70
2023-09-23T12:44:25.044Z,11.80
2023-09-23T12:46:56.850Z,11.90
2023-09-23T12:49:27.122Z,12.00
2023-09-23T12:51:57.370Z,12.10
2023-09-23T12:54:27.726Z,12.10
2023-09-23T12:56:57.929Z,12.20
2023-09-23T12:59:28.196Z,12.20
2023-09-23T13:02:00.169Z,12.30
2023-09-23T13:04:31.168Z,12.40
2023-09-23T13:07:01.345Z,12.40
2023-09-23T13:09:32.349Z,12.50
2023-09-23T13:12:02.799Z,12.60
2023-09-23T13:14:33.957Z,12.60
2023-09-23T13:17:06.915Z,12.70
2023-09-23T13:19:37.249Z,12.80
2023-09-23T13:22:07.454Z,12.80
2023-09-23T13:24:37.684Z,12.90
2023-09-23T13:27:08.031Z,12.90
2023-09-23T13:29:38.320Z,12.90
2023-09-23T13:32:10.704Z,13.00
2023-09-23T13:34:41.051Z,13.10
2023-09-23T13:37:11.393Z,13.10
2023-09-23T13:39:41.620Z,13.20
2023-09-23T13:42:11.886Z,13.30
2023-09-23T13:44:42.206Z,13.40
2023-09-23T13:47:14.220Z,13.50
2023-09-23T13:49:44.579Z,13.60
2023-09-23T13:52:15.419Z,13.70
2023-09-23T13:54:45.732Z,13.80
2023-09-23T13:57:15.953Z,13.90
2023-09-23T13:59:46.190Z,14.00
2023-09-23T14:02:20.028Z,14.20
2023-09-23T14:04:50.317Z,14.40
2023-09-23T14:07:22.139Z,14.50
2023-09-23T14:09:53.057Z,14.60
2023-09-23T14:12:23.566Z,14.70
2023-09-23T14:14:53.859Z,14.80
2023-09-23T14:17:26.084Z,14.90
2023-09-23T14:19:56.616Z,15.10
2023-09-23T14:22:28.893Z,15.20
2023-09-23T14:24:59.155Z,15.30
2023-09-23T14:27:29.316Z,15.40
2023-09-23T14:29:59.567Z,15.50
2023-09-23T14:32:31.555Z,15.60
2023-09-23T14:35:01.950Z,15.70
2023-09-23T14:37:33.524Z,15.90
2023-09-23T14:40:03.972Z,16.00
2023-09-23T14:42:34.623Z,16.10
2023-09-23T14:45:05.803Z,16.20
2023-09-23T14:47:38.205Z,16.40
2023-09-23T14:50:09.817Z,16.60
2023-09-23T14:52:40.028Z,16.70
2023-09-23T14:55:10.877Z,16.80
2023-09-23T14:57:42.870Z,16.90
2023-09-23T15:00:14.021Z,17.00
2023-09-23T15:02:46.140Z,17.10
2023-09-23T15:05:16.593Z,17.30
2023-09-23T15:07:47.763Z,17.40
2023-09-23T15:10:18.084Z,17.60
2023-09-23T15:12:49.331Z,17.80
2023-09-23T15:15:19.651Z,18.00
2023-09-23T15:17:52.079Z,18.20
2023-09-23T15:20:22.472Z,18.50
2023-09-23T15:22:52.748Z,18.70
2023-09-23T15:25:23.044Z,18.90
2023-09-23T15:27:53.653Z,19.10
2023-09-23T15:30:24.717Z,19.20
2023-09-23T15:32:56.607Z,19.40
2023-09-23T15:35:26.929Z,19.60
2023-09-23T15:37:57.184Z,19.80
2023-09-23T15:40:27.445Z,19.80
2023-09-23T15:42:57.689Z,19.90
2023-09-23T15:45:28.175Z,20.10
2023-09-23T15:48:00.127Z,20.40
2023-09-23T15:50:30.548Z,20.60
2023-09-23T15:53:00.794Z,20.70
2023-09-23T15:55:31.097Z,20.60
2023-09-23T15:58:01.309Z,21.00
2023-09-23T16:00:31.737Z,21.20
2023-09-23T16:03:04.087Z,21.20
2023-09-23T16:05:34.607Z,21.50
2023-09-23T16:08:05.095Z,21.70
2023-09-23T16:10:35.508Z,21.80
2023-09-23T16:13:06.249Z,22.20
2023-09-23T16:15:36.727Z,22.30
2023-09-23T16:18:09.564Z,22.60
2023-09-23T16:20:40.376Z,22.90
2023-09-23T16:23:10.716Z,23.20
2023-09-23T16:25:41.020Z,23.60
2023-09-23T16:28:11.229Z,23.70
2023-09-23T16:30:42.235Z,23.80
2023-09-23T16:33:14.296Z,24.00
2023-09-23T16:35:44.613Z,24.30
2023-09-23T16:38:15.793Z,24.70
2023-09-23T16:40:48.530Z,24.80
2023-09-23T16:43:18.755Z,25.00
2023-09-23T16:45:51.480Z,25.10
2023-09-23T16:48:23.525Z,24.80
2023-09-23T16:50:56.207Z,24.70
2023-09-23T16:53:26.461Z,25.00
2023-09-23T16:55:56.924Z,25.30
2023-09-23T16:58:27.125Z,25.40
2023-09-23T17:00:57.694Z,25.40
2023-09-23T17:03:29.890Z,25.20
2023-09-23T17:06:00.159Z,25.00
2023-09-23T17:08:30.936Z,24.80
2023-09-23T17:11:01.224Z,24.80
2023-09-23T17:13:32.765Z,24.90
2023-09-23T17:16:03.138Z,25.00
2023-09-23T17:18:35.392Z,25.00
2023-09-23T17:21:05.741Z,24.80
2023-09-23T17:23:35.964Z,24.70
2023-09-23T17:26:07.096Z,24.30
2023-09-23T17:28:37.344Z,24.30
2023-09-23T17:31:13.165Z,24.20
2023-09-23T17:33:45.042Z,24.70
2023-09-23T17:36:15.650Z,25.10
2023-09-23T17:38:46.478Z,25.20
2023-09-23T17:41:18.530Z,25.30
2023-09-23T17:43:48.794Z,25.20
2023-09-23T17:46:19.206Z,25.20
2023-09-23T17:48:51.281Z,25.50
2023-09-23T17:51:21.646Z,25.50
2023-09-23T17:53:51.872Z,25.50
2023-09-23T17:56:23.671Z,25.40
2023-09-23T17:58:54.051Z,25.20
2023-09-23T18:01:24.451Z,25.40
2023-09-23T18:03:56.514Z,25.50
2023-09-23T18:06:27.008Z,25.40
2023-09-23T18:08:58.171Z,25.40
2023-09-23T18:11:28.870Z,25.40
2023-09-23T18:13:59.441Z,25.50
2023-09-23T18:16:30.032Z,25.90
2023-09-23T18:19:02.184Z,26.10
2023-09-23T18:21:32.673Z,26.20
2023-09-23T18:24:02.845Z,26.30
2023-09-23T18:26:33.171Z,26.50
2023-09-23T18:29:03.806Z,26.50
2023-09-23T18:31:34.461Z,26.00
2023-09-23T18:34:06.735Z,25.50
2023-09-23T18:36:37.514Z,25.20
2023-09-23T18:39:08.080Z,25.10
2023-09-23T18:41:38.362Z,25.10
2023-09-23T18:44:09.361Z,25.20
2023-09-23T18:46:39.736Z,25.30
2023-09-23T18:49:11.770Z,25.30
2023-09-23T18:51:42.009Z,25.10
2023-09-23T18:54:12.279Z,25.10
2023-09-23T18:56:42.719Z,25.20
2023-09-23T18:59:13.032Z,25.20
2023-09-23T19:01:43.313Z,25.20
2023-09-23T19:04:15.869Z,25.10
2023-09-23T19:06:46.330Z,25.00
2023-09-23T19:09:16.643Z,25.20
2023-09-23T19:11:47.257Z,25.00
2023-09-23T19:14:18.884Z,24.80
2023-09-23T19:16:49.862Z,24.80
2023-09-23T19:19:21.895Z,24.90
2023-09-23T19:21:52.156Z,24.70
2023-09-23T19:24:23.353Z,24.70
2023-09-23T19:26:57.391Z,24.60
2023-09-23T19:29:28.409Z,24.70
2023-09-23T19:32:00.817Z,24.70
2023-09-23T19:34:33.643Z,24.70
2023-09-23T19:37:03.910Z,25.00
2023-09-23T19:39:38.481Z,25.20
2023-09-23T19:42:09.274Z,25.10
2023-09-23T19:44:39.566Z,25.10
2023-09-23T19:47:10.137Z,25.30
2023-09-23T19:49:43.011Z,25.30
2023-09-23T19:52:13.270Z,25.30
2023-09-23T19:54:43.658Z,25.40
2023-09-23T19:57:14.049Z,25.50
2023-09-23T19:59:44.248Z,25.40
2023-09-23T20:02:14.651Z,25.30
2023-09-23T20:04:47.862Z,25.10
2023-09-23T20:07:19.138Z,24.80
2023-09-23T20:09:49.466Z,24.50
2023-09-23T20:12:21.492Z,24.30
2023-09-23T20:14:51.804Z,23.90
2023-09-23T20:17:22.223Z,23.80
2023-09-23T20:19:54.779Z,23.70
2023-09-23T20:22:25.025Z,23.70
2023-09-23T20:24:55.630Z,23.80
2023-09-23T20:27:26.249Z,24.00
2023-09-23T20:30:06.487Z,24.20
2023-09-23T20:32:39.809Z,24.30
2023-09-23T20:35:14.171Z,24.30
2023-09-23T20:37:46.001Z,24.20
2023-09-23T20:40:17.465Z,24.10
2023-09-23T20:42:48.204Z,24.10
2023-09-23T20:45:19.455Z,23.90
2023-09-23T20:47:50.575Z,23.70
2023-09-23T20:50:23.700Z,23.70
2023-09-23T20:52:54.289Z,23.90
2023-09-23T20:55:24.564Z,24.00
2023-09-23T20:57:57.217Z,24.00
2023-09-23T21:00:27.729Z,23.60
2023-09-23T21:02:58.128Z,23.30
2023-09-23T21:05:30.314Z,22.70
2023-09-23T21:08:00.681Z,22.30
2023-09-23T21:10:31.225Z,21.90
2023-09-23T21:13:01.520Z,21.60
2023-09-23T21:15:32.674Z,21.30
2023-09-23T21:18:03.861Z,21.10
2023-09-23T21:20:35.809Z,20.90
2023-09-23T21:23:06.410Z,20.70
2023-09-23T21:25:36.734Z,20.60
2023-09-23T21:28:07.363Z,20.40
2023-09-23T21:30:38.394Z,20.30
2023-09-23T21:33:08.939Z,20.20
2023-09-23T21:35:41.927Z,20.10
2023-09-23T21:38:14.036Z,20.10
2023-09-23T21:40:45.354Z,20.00
2023-09-23T21:43:15.884Z,19.90
2023-09-23T21:45:46.808Z,19.80
2023-09-23T21:48:17.965Z,19.80
2023-09-23T21:50:58.596Z,19.70
2023-09-23T21:53:30.377Z,19.70
2023-09-23T21:56:00.833Z,19.60
2023-09-23T21:58:31.752Z,19.50
2023-09-23T22:01:03.273Z,19.40
2023-09-23T22:03:36.385Z,19.40
2023-09-23T22:06:09.458Z,19.30
2023-09-23T22:08:40.036Z,19.20
2023-09-23T22:11:10.690Z,19.10
2023-09-23T22:13:41.028Z,19.00
2023-09-23T22:16:11.414Z,18.90
2023-09-23T22:18:42.718Z,18.70
2023-09-23T22:21:15.738Z,18.60
2023-09-23T22:23:46.626Z,18.50
2023-09-23T22:26:17.356Z,18.40
2023-09-23T22:28:47.658Z,18.20
2023-09-23T22:31:31.163Z,18.00
2023-09-23T22:34:03.017Z,17.80
2023-09-23T22:36:37.621Z,17.50
2023-09-23T22:39:11.079Z,17.40
2023-09-23T22:41:41.541Z,17.20
2023-09-23T22:44:11.945Z,17.00
2023-09-23T22:46:43.460Z,16.80
2023-09-23T22:49:17.553Z,16.60
2023-09-23T22:51:50.121Z,16.40
2023-09-23T22:54:20.759Z,16.30
2023-09-23T22:56:53.016Z,16.20
2023-09-23T22:59:25.869Z,16.10
2023-09-23T23:01:56.449Z,16.00
2023-09-23T23:04:27.242Z,15.90
2023-09-23T23:06:59.774Z,15.80
2023-09-23T23:09:30.202Z,15.60
2023-09-23T23:12:00.589Z,15.60
2023-09-23T23:14:31.104Z,15.50
2023-09-23T23:17:02.194Z,15.40
2023-09-23T23:19:35.107Z,15.30
2023-09-23T23:22:08.089Z,15.20
2023-09-23T23:24:38.820Z,15.10
2023-09-23T23:27:10.834Z,15.00
2023-09-23T23:29:41.140Z,14.90
2023-09-23T23:32:11.904Z,14.90
2023-09-23T23:34:42.678Z,14.80
2023-09-23T23:37:15.114Z,14.70
2023-09-23T23:39:49.161Z,14.60
2023-09-23T23:42:19.701Z,14.60
2023-09-23T23:44:54.602Z,14.60
2023-09-23T23:47:25.813Z,14.50
2023-09-23T23:50:00.204Z,14.50
2023-09-23T23:52:34.570Z,14.50
2023-09-23T23:55:05.116Z,14.40
2023-09-23T23:57:37.910Z,14.30
